createdAt,value
2023-09-23T00:00:01.284Z,958.62
2023-09-23T00:01:01.278Z,958.63
2023-09-23T00:02:01.436Z,958.64
2023-09-23T00:03:01.432Z,958.64
2023-09-23T00:04:01.439Z,958.64
2023-09-23T00:05:01.283Z,958.63
2023-09-23T00:06:01.254Z,958.62
2023-09-23T00:07:01.211Z,958.60
2023-09-23T00:08:01.248Z,958.59
2023-09-23T00:09:01.231Z,958.59
2023-09-23T00:10:01.204Z,958.59
2023-09-23T00:11:01.223Z,958.58
2023-09-23T00:12:01.192Z,958.57
2023-09-23T00:13:01.207Z,958.57
2023-09-23T00:14:01.223Z,958.57
2023-09-23T00:15:01.192Z,958.57
2023-09-23T00:16:01.880Z,958.59
2023-09-23T00:17:01.257Z,958.60
2023-09-23T00:18:01.128Z,958.63
2023-09-23T00:19:01.087Z,958.65
2023-09-23T00:20:01.128Z,958.65
2023-09-23T00:21:01.075Z,958.66
2023-09-23T00:22:01.050Z,958.68
2023-09-23T00:23:01.083Z,958.69
2023-09-23T00:24:01.022Z,958.71
2023-09-23T00:25:01.975Z,958.73
2023-09-23T00:26:01.154Z,958.72
2023-09-23T00:27:01.098Z,958.71
2023-09-23T00:28:01.003Z,958.71
2023-09-23T00:29:00.998Z,958.73
2023-09-23T00:30:00.953Z,958.72
2023-09-23T00:31:01.028Z,958.71
2023-09-23T00:32:00.993Z,958.72
2023-09-23T00:33:00.985Z,958.70
2023-09-23T00:34:00.937Z,958.68
2023-09-23T00:35:00.929Z,958.67
2023-09-23T00:36:00.934Z,958.66
2023-09-23T00:37:00.914Z,958.66
2023-09-23T00:38:00.941Z,958.64
2023-09-23T00:39:00.913Z,958.63
2023-09-23T00:40:00.887Z,958.61
2023-09-23T00:41:00.866Z,958.60
2023-09-23T00:42:00.852Z,958.58
2023-09-23T00:43:00.854Z,958.59
2023-09-23T00:44:00.845Z,958.61
2023-09-23T00:45:00.834Z,958.61
2023-09-23T00:46:00.823Z,958.62
2023-09-23T00:47:00.814Z,958.63
2023-09-23T00:48:00.820Z,958.64
2023-09-23T00:49:00.782Z,958.63
2023-09-23T00:50:00.789Z,958.61
2023-09-23T00:51:00.762Z,958.61
2023-09-23T00:52:00.725Z,958.60
2023-09-23T00:53:00.828Z,958.61
2023-09-23T00:54:00.758Z,958.63
2023-09-23T00:55:00.738Z,958.66
2023-09-23T00:56:00.792Z,958.67
2023-09-23T00:57:00.682Z,958.66
2023-09-23T00:58:00.789Z,958.67
2023-09-23T00:59:00.751Z,958.66
2023-09-23T01:00:00.731Z,958.66
2023-09-23T01:01:00.666Z,958.66
2023-09-23T01:02:00.867Z,958.65
2023-09-23T01:03:01.180Z,958.65
2023-09-23T01:04:00.753Z,958.66
2023-09-23T01:05:00.664Z,958.66
2023-09-23T01:06:00.582Z,958.64
2023-09-23T01:07:00.597Z,958.63
2023-09-23T01:08:00.640Z,958.63
2023-09-23T01:09:00.591Z,958.62
2023-09-23T01:10:00.600Z,958.62
2023-09-23T01:11:00.539Z,958.64
2023-09-23T01:12:00.545Z,958.65
2023-09-23T01:13:00.573Z,958.66
2023-09-23T01:14:00.548Z,958.69
2023-09-23T01:15:00.557Z,958.72
2023-09-23T01:16:00.527Z,958.74
2023-09-23T01:17:00.538Z,958.76
2023-09-23T01:18:00.517Z,958.78
2023-09-23T01:19:00.504Z,958.80
2023-09-23T01:20:00.520Z,958.81
2023-09-23T01:21:00.427Z,958.81
2023-09-23T01:22:00.442Z,958.80
2023-09-23T01:23:00.496Z,958.79
2023-09-23T01:24:00.396Z,958.78
2023-09-23T01:25:00.418Z,958.79
2023-09-23T01:26:00.439Z,958.78
2023-09-23T01:27:00.385Z,958.80
2023-09-23T01:28:00.392Z,958.81
2023-09-23T01:29:00.360Z,958.83
2023-09-23T01:30:00.364Z,958.85
2023-09-23T01:31:00.372Z,958.87
2023-09-23T01:32:00.386Z,958.91
2023-09-23T01:33:00.380Z,958.93
2023-09-23T01:34:00.373Z,958.96
2023-09-23T01:35:00.335Z,958.99
2023-09-23T01:36:00.313Z,959.01
2023-09-23T01:37:00.491Z,959.03
2023-09-23T01:38:00.290Z,959.03
2023-09-23T01:39:00.271Z,959.03
2023-09-23T01:40:00.229Z,959.04
2023-09-23T01:41:00.306Z,959.04
2023-09-23T01:42:00.224Z,959.06
2023-09-23T01:43:00.243Z,959.07
2023-09-23T01:44:00.233Z,959.08
2023-09-23T01:45:00.227Z,959.09
2023-09-23T01:46:00.223Z,959.08
2023-09-23T01:47:00.275Z,959.08
2023-09-23T01:48:00.348Z,959.07
2023-09-23T01:49:00.159Z,959.05
2023-09-23T01:50:00.217Z,959.03
2023-09-23T01:51:00.159Z,958.99
2023-09-23T01:52:00.110Z,958.95
2023-09-23T01:53:00.214Z,958.92
2023-09-23T01:54:00.116Z,958.90
2023-09-23T01:55:00.113Z,958.87
2023-09-23T01:56:00.146Z,958.85
2023-09-23T01:57:00.056Z,958.88
2023-09-23T01:58:00.047Z,958.91
2023-09-23T01:59:00.091Z,958.96
2023-09-23T02:00:00.079Z,959.00
2023-09-23T02:01:00.079Z,959.05
2023-09-23T02:02:00.199Z,959.09
2023-09-23T02:03:00.147Z,959.12
2023-09-23T02:04:00.103Z,959.12
2023-09-23T02:05:00.106Z,959.14
2023-09-23T02:05:59.964Z,959.14
2023-09-23T02:06:59.977Z,959.13
2023-09-23T02:08:00.003Z,959.10
2023-09-23T02:09:00.014Z,959.09
2023-09-23T02:09:59.965Z,959.07
2023-09-23T02:11:00.087Z,959.06
2023-09-23T02:11:59.938Z,959.05
2023-09-23T02:12:59.933Z,959.05
2023-09-23T02:13:59.950Z,959.06
2023-09-23T02:14:59.872Z,959.09
2023-09-23T02:15:59.898Z,959.12
2023-09-23T02:16:59.949Z,959.14
2023-09-23T02:17:59.903Z,959.17
2023-09-23T02:18:59.877Z,959.20
2023-09-23T02:19:59.920Z,959.23
2023-09-23T02:20:59.836Z,959.24
2023-09-23T02:21:59.847Z,959.27
2023-09-23T02:22:59.890Z,959.29
2023-09-23T02:23:59.861Z,959.33
2023-09-23T02:24:59.785Z,959.33
2023-09-23T02:25:59.860Z,959.34
2023-09-23T02:26:59.810Z,959.32
2023-09-23T02:27:59.769Z,959.31
2023-09-23T02:28:59.850Z,959.29
2023-09-23T02:29:59.798Z,959.28
2023-09-23T02:30:59.750Z,959.28
2023-09-23T02:31:59.753Z,959.28
2023-09-23T02:32:59.770Z,959.29
2023-09-23T02:33:59.720Z,959.30
2023-09-23T02:34:59.723Z,959.32
2023-09-23T02:35:59.686Z,959.32
2023-09-23T02:36:59.689Z,959.33
2023-09-23T02:37:59.752Z,959.33
2023-09-23T02:38:59.660Z,959.35
2023-09-23T02:39:59.652Z,959.35
2023-09-23T02:40:59.659Z,959.35
2023-09-23T02:41:59.624Z,959.34
2023-09-23T02:42:59.620Z,959.35
2023-09-23T02:43:59.646Z,959.37
2023-09-23T02:44:59.610Z,959.38
2023-09-23T02:45:59.605Z,959.41
2023-09-23T02:46:59.675Z,959.43
2023-09-23T02:47:59.713Z,959.45
2023-09-23T02:48:59.556Z,959.47
2023-09-23T02:49:59.613Z,959.52
2023-09-23T02:50:59.507Z,959.56
2023-09-23T02:51:59.541Z,959.60
2023-09-23T02:53:00.062Z,959.65
2023-09-23T02:53:59.485Z,959.70
2023-09-23T02:54:59.500Z,959.72
2023-09-23T02:55:59.578Z,959.75
2023-09-23T02:56:59.484Z,959.75
2023-09-23T02:57:59.474Z,959.78
2023-09-23T02:58:59.518Z,959.78
2023-09-23T02:59:59.448Z,959.77
2023-09-23T03:00:59.415Z,959.77
2023-09-23T03:01:59.554Z,959.77
2023-09-23T03:02:59.533Z,959.74
2023-09-23T03:03:59.469Z,959.75
2023-09-23T03:04:59.513Z,959.73
2023-09-23T03:05:59.459Z,959.73
2023-09-23T03:06:59.348Z,959.73
2023-09-23T03:07:59.711Z,959.74
2023-09-23T03:08:59.418Z,959.75
2023-09-23T03:09:59.357Z,959.77
2023-09-23T03:10:59.378Z,959.78
2023-09-23T03:11:59.303Z,959.80
2023-09-23T03:12:59.311Z,959.83
2023-09-23T03:13:59.319Z,959.84
2023-09-23T03:14:59.284Z,959.87
2023-09-23T03:15:59.347Z,959.91
2023-09-23T03:16:59.269Z,959.93
2023-09-23T03:17:59.267Z,959.94
2023-09-23T03:18:59.255Z,959.96
2023-09-23T03:19:59.271Z,959.98
2023-09-23T03:20:59.225Z,959.99
2023-09-23T03:21:59.217Z,960.00
2023-09-23T03:22:59.227Z,960.01
2023-09-23T03:23:59.194Z,960.01
2023-09-23T03:24:59.230Z,960.00
2023-09-23T03:25:59.165Z,960.00
2023-09-23T03:26:59.158Z,959.98
2023-09-23T03:27:59.196Z,959.98
2023-09-23T03:28:59.171Z,959.98
2023-09-23T03:29:59.709Z,959.99
2023-09-23T03:30:59.092Z,960.00
2023-09-23T03:31:59.188Z,960.02
2023-09-23T03:32:59.177Z,960.04
2023-09-23T03:33:59.099Z,960.05
2023-09-23T03:34:59.102Z,960.06
2023-09-23T03:35:59.079Z,960.09
2023-09-23T03:36:59.058Z,960.11
2023-09-23T03:37:59.080Z,960.12
2023-09-23T03:38:59.135Z,960.14
2023-09-23T03:39:59.022Z,960.16
2023-09-23T03:40:58.992Z,960.17
2023-09-23T03:41:58.996Z,960.18
2023-09-23T03:42:59.001Z,960.19
2023-09-23T03:43:59.039Z,960.21
2023-09-23T03:44:58.992Z,960.21
2023-09-23T03:45:59.045Z,960.22
2023-09-23T03:46:58.949Z,960.23
2023-09-23T03:47:58.990Z,960.25
2023-09-23T03:48:58.907Z,960.26
2023-09-23T03:49:58.983Z,960.27
2023-09-23T03:50:58.929Z,960.28
2023-09-23T03:51:58.904Z,960.27
2023-09-23T03:52:58.896Z,960.27
2023-09-23T03:53:58.878Z,960.28
2023-09-23T03:54:58.885Z,960.29
2023-09-23T03:55:58.861Z,960.30
2023-09-23T03:56:58.840Z,960.31
2023-09-23T03:57:58.851Z,960.31
2023-09-23T03:58:58.832Z,960.32
2023-09-23T03:59:58.828Z,960.33
2023-09-23T04:00:58.778Z,960.32
2023-09-23T04:01:58.861Z,960.31
2023-09-23T04:02:58.838Z,960.32
2023-09-23T04:03:58.826Z,960.32
2023-09-23T04:04:58.807Z,960.31
2023-09-23T04:05:59.297Z,960.31
2023-09-23T04:06:58.751Z,960.31
2023-09-23T04:07:58.772Z,960.32
2023-09-23T04:08:58.698Z,960.34
2023-09-23T04:09:58.743Z,960.35
2023-09-23T04:10:58.735Z,960.36
2023-09-23T04:11:58.690Z,960.37
2023-09-23T04:12:58.683Z,960.38
2023-09-23T04:13:58.689Z,960.38
2023-09-23T04:14:58.643Z,960.37
2023-09-23T04:15:58.687Z,960.37
2023-09-23T04:16:58.686Z,960.37
2023-09-23T04:17:58.712Z,960.36
2023-09-23T04:18:58.628Z,960.36
2023-09-23T04:19:58.604Z,960.35
2023-09-23T04:20:58.625Z,960.36
2023-09-23T04:21:58.560Z,960.37
2023-09-23T04:22:58.607Z,960.38
2023-09-23T04:23:58.581Z,960.40
2023-09-23T04:24:58.562Z,960.41
2023-09-23T04:25:58.579Z,960.42
2023-09-23T04:26:58.515Z,960.44
2023-09-23T04:27:58.538Z,960.44
2023-09-23T04:28:58.540Z,960.44
2023-09-23T04:29:58.490Z,960.44
2023-09-23T04:30:58.522Z,960.45
2023-09-23T04:31:58.487Z,960.46
2023-09-23T04:32:58.567Z,960.47
2023-09-23T04:33:58.482Z,960.48
2023-09-23T04:34:58.514Z,960.50
2023-09-23T04:35:58.468Z,960.51
2023-09-23T04:36:58.419Z,960.52
2023-09-23T04:37:58.506Z,960.53
2023-09-23T04:38:58.422Z,960.54
2023-09-23T04:39:58.462Z,960.54
2023-09-23T04:40:58.427Z,960.54
2023-09-23T04:41:58.343Z,960.54
2023-09-23T04:42:58.349Z,960.54
2023-09-23T04:43:58.349Z,960.54
2023-09-23T04:44:58.351Z,960.55
2023-09-23T04:45:58.323Z,960.55
2023-09-23T04:46:58.291Z,960.56
2023-09-23T04:47:58.254Z,960.57
2023-09-23T04:48:58.276Z,960.57
2023-09-23T04:49:58.284Z,960.58
2023-09-23T04:50:58.215Z,960.58
2023-09-23T04:51:58.252Z,960.57
2023-09-23T04:52:58.241Z,960.58
2023-09-23T04:53:58.281Z,960.58
2023-09-23T04:54:58.176Z,960.58
2023-09-23T04:55:58.235Z,960.58
2023-09-23T04:56:58.174Z,960.59
2023-09-23T04:57:58.193Z,960.59
2023-09-23T04:58:58.220Z,960.61
2023-09-23T04:59:58.142Z,960.62
2023-09-23T05:00:58.155Z,960.64
2023-09-23T05:01:58.146Z,960.66
2023-09-23T05:02:58.152Z,960.68
2023-09-23T05:03:58.142Z,960.72
2023-09-23T05:04:58.193Z,960.73
2023-09-23T05:05:58.193Z,960.74
2023-09-23T05:06:58.113Z,960.75
2023-09-23T05:07:58.081Z,960.75
2023-09-23T05:08:58.062Z,960.76
2023-09-23T05:09:58.046Z,960.77
2023-09-23T05:10:58.125Z,960.78
2023-09-23T05:11:58.038Z,960.79
2023-09-23T05:12:58.040Z,960.81
2023-09-23T05:13:58.013Z,960.81
2023-09-23T05:14:57.996Z,960.81
2023-09-23T05:15:58.000Z,960.82
2023-09-23T05:16:58.004Z,960.82
2023-09-23T05:17:57.988Z,960.82
2023-09-23T05:18:58.002Z,960.83
2023-09-23T05:19:57.975Z,960.84
2023-09-23T05:20:57.908Z,960.86
2023-09-23T05:21:57.920Z,960.87
2023-09-23T05:22:57.953Z,960.87
2023-09-23T05:23:58.433Z,960.88
2023-09-23T05:24:57.943Z,960.90
2023-09-23T05:25:57.923Z,960.92
2023-09-23T05:26:58.170Z,960.94
2023-09-23T05:27:57.860Z,960.97
2023-09-23T05:28:57.849Z,960.98
2023-09-23T05:29:57.853Z,960.99
2023-09-23T05:30:57.894Z,961.01
2023-09-23T05:31:57.828Z,961.02
2023-09-23T05:32:57.941Z,961.02
2023-09-23T05:33:57.794Z,961.04
2023-09-23T05:34:57.828Z,961.05
2023-09-23T05:35:57.891Z,961.07
2023-09-23T05:36:57.759Z,961.07
2023-09-23T05:37:57.761Z,961.08
2023-09-23T05:38:57.749Z,961.09
2023-09-23T05:39:57.755Z,961.10
2023-09-23T05:40:57.792Z,961.10
2023-09-23T05:41:57.730Z,961.10
2023-09-23T05:42:57.743Z,961.12
2023-09-23T05:43:57.746Z,961.13
2023-09-23T05:44:57.720Z,961.15
2023-09-23T05:45:57.691Z,961.16
2023-09-23T05:46:57.799Z,961.18
2023-09-23T05:47:57.661Z,961.20
2023-09-23T05:48:57.649Z,961.22
2023-09-23T05:49:57.745Z,961.24
2023-09-23T05:50:57.596Z,961.26
2023-09-23T05:51:57.615Z,961.28
2023-09-23T05:52:57.640Z,961.31
2023-09-23T05:53:57.581Z,961.33
2023-09-23T05:54:57.608Z,961.36
2023-09-23T05:55:57.561Z,961.38
2023-09-23T05:56:57.574Z,961.40
2023-09-23T05:57:57.532Z,961.41
2023-09-23T05:58:57.580Z,961.42
2023-09-23T05:59:57.530Z,961.43
2023-09-23T06:00:57.541Z,961.44
2023-09-23T06:01:57.535Z,961.45
2023-09-23T06:02:57.538Z,961.48
2023-09-23T06:03:57.714Z,961.50
2023-09-23T06:04:57.512Z,961.51
2023-09-23T06:05:57.518Z,961.55
2023-09-23T06:06:57.628Z,961.57
2023-09-23T06:07:57.585Z,961.59
2023-09-23T06:08:57.483Z,961.62
2023-09-23T06:09:57.532Z,961.64
2023-09-23T06:10:57.479Z,961.67
2023-09-23T06:11:57.410Z,961.70
2023-09-23T06:12:57.456Z,961.72
2023-09-23T06:13:57.411Z,961.73
2023-09-23T06:14:57.378Z,961.77
2023-09-23T06:15:57.462Z,961.79
2023-09-23T06:16:57.424Z,961.81
2023-09-23T06:17:57.469Z,961.82
2023-09-23T06:18:57.346Z,961.83
2023-09-23T06:19:57.380Z,961.84
2023-09-23T06:20:57.315Z,961.84
2023-09-23T06:21:57.299Z,961.85
2023-09-23T06:22:57.353Z,961.85
2023-09-23T06:23:57.283Z,961.85
2023-09-23T06:24:57.280Z,961.85
2023-09-23T06:25:57.324Z,961.86
2023-09-23T06:26:57.247Z,961.87
2023-09-23T06:27:57.261Z,961.87
2023-09-23T06:28:57.241Z,961.89
2023-09-23T06:29:57.227Z,961.90
2023-09-23T06:30:57.249Z,961.90
2023-09-23T06:31:57.227Z,961.91
2023-09-23T06:32:57.220Z,961.92
2023-09-23T06:33:57.218Z,961.92
2023-09-23T06:34:57.216Z,961.93
2023-09-23T06:35:57.170Z,961.93
2023-09-23T06:36:57.193Z,961.95
2023-09-23T06:37:57.942Z,961.95
2023-09-23T06:38:57.131Z,961.95
2023-09-23T06:39:57.127Z,961.96
2023-09-23T06:40:57.243Z,961.96
2023-09-23T06:41:57.161Z,961.96
2023-09-23T06:42:57.097Z,961.96
2023-09-23T06:43:57.110Z,961.99
2023-09-23T06:44:57.127Z,962.00
2023-09-23T06:45:57.108Z,962.01
2023-09-23T06:46:57.172Z,962.03
2023-09-23T06:47:57.114Z,962.03
2023-09-23T06:48:57.007Z,962.04
2023-09-23T06:49:57.087Z,962.02
2023-09-23T06:50:57.028Z,962.03
2023-09-23T06:51:56.994Z,962.04
2023-09-23T06:52:57.013Z,962.05
2023-09-23T06:53:56.984Z,962.05
2023-09-23T06:54:56.983Z,962.06
2023-09-23T06:55:57.120Z,962.07
2023-09-23T06:56:56.932Z,962.08
2023-09-23T06:57:56.906Z,962.08
2023-09-23T06:58:56.960Z,962.10
2023-09-23T06:59:56.949Z,962.11
2023-09-23T07:00:56.967Z,962.12
2023-09-23T07:01:56.987Z,962.13
2023-09-23T07:02:56.977Z,962.14
2023-09-23T07:03:56.928Z,962.15
2023-09-23T07:04:56.956Z,962.17
2023-09-23T07:05:56.883Z,962.18
2023-09-23T07:06:56.834Z,962.20
2023-09-23T07:07:56.873Z,962.22
2023-09-23T07:08:56.815Z,962.24
2023-09-23T07:09:56.800Z,962.25
2023-09-23T07:10:56.908Z,962.26
2023-09-23T07:11:56.787Z,962.27
2023-09-23T07:12:56.918Z,962.27
2023-09-23T07:13:56.899Z,962.29
2023-09-23T07:14:56.744Z,962.29
2023-09-23T07:15:56.748Z,962.28
2023-09-23T07:16:56.781Z,962.31
2023-09-23T07:17:56.769Z,962.33
2023-09-23T07:18:56.718Z,962.34
2023-09-23T07:19:56.695Z,962.35
2023-09-23T07:20:56.707Z,962.36
2023-09-23T07:21:56.721Z,962.38
2023-09-23T07:22:56.743Z,962.40
2023-09-23T07:23:56.666Z,962.40
2023-09-23T07:24:56.639Z,962.43
2023-09-23T07:25:56.655Z,962.43
2023-09-23T07:26:56.654Z,962.45
2023-09-23T07:27:56.611Z,962.44
2023-09-23T07:28:56.635Z,962.43
2023-09-23T07:29:56.605Z,962.45
2023-09-23T07:30:56.624Z,962.45
2023-09-23T07:31:56.673Z,962.48
2023-09-23T07:32:56.725Z,962.48
2023-09-23T07:33:56.558Z,962.51
2023-09-23T07:34:56.618Z,962.53
2023-09-23T07:35:56.534Z,962.54
2023-09-23T07:36:56.565Z,962.56
2023-09-23T07:37:56.536Z,962.58
2023-09-23T07:38:56.498Z,962.60
2023-09-23T07:39:56.505Z,962.60
2023-09-23T07:40:56.553Z,962.60
2023-09-23T07:41:56.506Z,962.60
2023-09-23T07:42:56.481Z,962.62
2023-09-23T07:43:56.524Z,962.62
2023-09-23T07:44:56.458Z,962.62
2023-09-23T07:45:56.503Z,962.63
2023-09-23T07:46:56.433Z,962.64
2023-09-23T07:47:56.465Z,962.65
2023-09-23T07:48:56.439Z,962.66
2023-09-23T07:49:56.440Z,962.68
2023-09-23T07:50:56.400Z,962.67
2023-09-23T07:51:56.371Z,962.70
2023-09-23T07:52:56.394Z,962.70
2023-09-23T07:53:56.353Z,962.71
2023-09-23T07:54:56.388Z,962.72
2023-09-23T07:55:56.433Z,962.75
2023-09-23T07:56:56.339Z,962.78
2023-09-23T07:57:56.282Z,962.77
2023-09-23T07:58:56.340Z,962.80
2023-09-23T07:59:56.283Z,962.79
2023-09-23T08:00:56.347Z,962.83
2023-09-23T08:01:56.316Z,962.85
2023-09-23T08:02:56.313Z,962.85
2023-09-23T08:03:56.616Z,962.89
2023-09-23T08:04:56.314Z,962.90
2023-09-23T08:05:56.226Z,962.92
2023-09-23T08:06:56.242Z,962.93
2023-09-23T08:07:56.262Z,962.94
2023-09-23T08:08:56.289Z,962.94
2023-09-23T08:09:56.276Z,962.99
2023-09-23T08:10:56.194Z,963.01
2023-09-23T08:11:56.133Z,963.03
2023-09-23T08:12:56.163Z,963.04
2023-09-23T08:13:56.210Z,963.08
2023-09-23T08:14:56.134Z,963.08
2023-09-23T08:15:56.179Z,963.06
2023-09-23T08:16:57.309Z,963.10
2023-09-23T08:17:56.163Z,963.09
2023-09-23T08:18:56.109Z,963.11
2023-09-23T08:19:56.171Z,963.12
2023-09-23T08:20:56.080Z,963.11
2023-09-23T08:21:56.084Z,963.13
2023-09-23T08:22:59.019Z,963.14
2023-09-23T08:23:56.092Z,963.17
2023-09-23T08:24:56.011Z,963.19
2023-09-23T08:25:56.003Z,963.19
2023-09-23T08:26:56.029Z,963.22
2023-09-23T08:27:56.096Z,963.26
2023-09-23T08:28:56.020Z,963.30
2023-09-23T08:29:55.980Z,963.33
2023-09-23T08:30:55.972Z,963.36
2023-09-23T08:31:56.057Z,963.37
2023-09-23T08:32:56.071Z,963.41
2023-09-23T08:33:55.950Z,963.42
2023-09-23T08:34:56.116Z,963.45
2023-09-23T08:35:55.998Z,963.46
2023-09-23T08:36:55.928Z,963.47
2023-09-23T08:37:55.976Z,963.47
2023-09-23T08:38:55.891Z,963.49
2023-09-23T08:39:55.900Z,963.48
2023-09-23T08:40:55.909Z,963.48
2023-09-23T08:41:55.839Z,963.45
2023-09-23T08:42:55.869Z,963.43
2023-09-23T08:43:55.866Z,963.42
2023-09-23T08:44:55.816Z,963.40
2023-09-23T08:45:55.935Z,963.44
2023-09-23T08:46:56.005Z,963.42
2023-09-23T08:47:55.816Z,963.45
2023-09-23T08:48:55.776Z,963.46
2023-09-23T08:49:55.946Z,963.47
2023-09-23T08:50:55.769Z,963.47
2023-09-23T08:51:55.753Z,963.48
2023-09-23T08:52:55.926Z,963.46
2023-09-23T08:53:55.744Z,963.49
2023-09-23T08:54:55.688Z,963.48
2023-09-23T08:55:55.814Z,963.47
2023-09-23T08:56:56.014Z,963.49
2023-09-23T08:57:55.676Z,963.50
2023-09-23T08:58:55.725Z,963.50
2023-09-23T08:59:55.640Z,963.50
2023-09-23T09:00:55.687Z,963.50
2023-09-23T09:01:55.664Z,963.52
2023-09-23T09:02:55.678Z,963.53
2023-09-23T09:03:55.634Z,963.53
2023-09-23T09:04:55.741Z,963.54
2023-09-23T09:05:55.690Z,963.57
2023-09-23T09:06:55.591Z,963.58
2023-09-23T09:07:55.632Z,963.57
2023-09-23T09:08:55.569Z,963.57
2023-09-23T09:09:55.636Z,963.57
2023-09-23T09:10:55.670Z,963.56
2023-09-23T09:11:55.552Z,963.55
2023-09-23T09:12:58.075Z,963.55
2023-09-23T09:13:55.565Z,963.56
2023-09-23T09:14:55.508Z,963.55
2023-09-23T09:15:55.592Z,963.53
2023-09-23T09:16:55.555Z,963.52
2023-09-23T09:17:55.495Z,963.52
2023-09-23T09:18:55.476Z,963.52
2023-09-23T09:19:55.603Z,963.52
2023-09-23T09:20:55.479Z,963.50
2023-09-23T09:21:55.442Z,963.50
2023-09-23T09:22:55.482Z,963.49
2023-09-23T09:23:55.425Z,963.49
2023-09-23T09:24:55.393Z,963.51
2023-09-23T09:25:55.432Z,963.49
2023-09-23T09:26:55.385Z,963.47
2023-09-23T09:27:55.447Z,963.47
2023-09-23T09:28:55.398Z,963.48
2023-09-23T09:30:07.236Z,963.48
2023-09-23T09:30:55.360Z,963.48
2023-09-23T09:31:55.356Z,963.46
2023-09-23T09:32:55.415Z,963.45
2023-09-23T09:33:55.326Z,963.44
2023-09-23T09:34:55.342Z,963.47
2023-09-23T09:35:55.304Z,963.46
2023-09-23T09:36:55.281Z,963.47
2023-09-23T09:38:03.557Z,963.51
2023-09-23T09:38:55.277Z,963.51
2023-09-23T09:39:55.329Z,963.50
2023-09-23T09:40:55.237Z,963.51
2023-09-23T09:41:55.207Z,963.50
2023-09-23T09:42:55.398Z,963.48
2023-09-23T09:43:55.200Z,963.50
2023-09-23T09:44:55.193Z,963.51
2023-09-23T09:45:55.196Z,963.48
2023-09-23T09:46:55.271Z,963.49
2023-09-23T09:47:55.273Z,963.51
2023-09-23T09:48:55.125Z,963.51
2023-09-23T09:49:55.159Z,963.53
2023-09-23T09:50:55.132Z,963.50
2023-09-23T09:51:55.169Z,963.48
2023-09-23T09:52:55.189Z,963.49
2023-09-23T09:53:55.122Z,963.48
2023-09-23T09:54:55.072Z,963.48
2023-09-23T09:55:55.119Z,963.50
2023-09-23T09:56:55.122Z,963.47
2023-09-23T09:57:55.076Z,963.46
2023-09-23T09:58:55.084Z,963.49
2023-09-23T09:59:55.016Z,963.48
2023-09-23T10:00:55.076Z,963.46
2023-09-23T10:01:55.118Z,963.45
2023-09-23T10:02:55.057Z,963.45
2023-09-23T10:03:55.037Z,963.49
2023-09-23T10:04:55.108Z,963.49
2023-09-23T10:05:54.991Z,963.51
2023-09-23T10:06:54.969Z,963.54
2023-09-23T10:07:55.016Z,963.54
2023-09-23T10:08:54.969Z,963.55
2023-09-23T10:09:54.959Z,963.57
2023-09-23T10:10:54.939Z,963.55
2023-09-23T10:11:55.029Z,963.55
2023-09-23T10:12:54.886Z,963.55
2023-09-23T10:13:55.004Z,963.57
2023-09-23T10:14:55.008Z,963.60
2023-09-23T10:15:54.933Z,963.58
2023-09-23T10:16:54.917Z,963.61
2023-09-23T10:17:55.049Z,963.60
2023-09-23T10:18:54.975Z,963.60
2023-09-23T10:19:55.051Z,963.64
2023-09-23T10:20:54.820Z,963.59
2023-09-23T10:21:56.184Z,963.59
2023-09-23T10:22:54.830Z,963.62
2023-09-23T10:23:54.801Z,963.62
2023-09-23T10:24:54.808Z,963.61
2023-09-23T10:25:54.770Z,963.62
2023-09-23T10:26:54.780Z,963.64
2023-09-23T10:27:54.752Z,963.62
2023-09-23T10:28:54.794Z,963.60
2023-09-23T10:29:56.188Z,963.59
2023-09-23T10:30:54.762Z,963.56
2023-09-23T10:31:54.737Z,963.55
2023-09-23T10:32:54.724Z,963.56
2023-09-23T10:33:54.761Z,963.55
2023-09-23T10:34:54.746Z,963.54
2023-09-23T10:35:54.695Z,963.55
2023-09-23T10:36:54.674Z,963.51
2023-09-23T10:37:54.701Z,963.54
2023-09-23T10:38:54.653Z,963.57
2023-09-23T10:39:54.631Z,963.56
2023-09-23T10:40:54.680Z,963.55
2023-09-23T10:41:54.583Z,963.53
2023-09-23T10:42:54.600Z,963.57
2023-09-23T10:43:54.606Z,963.55
2023-09-23T10:44:54.586Z,963.56
2023-09-23T10:45:54.665Z,963.58
2023-09-23T10:46:54.669Z,963.56
2023-09-23T10:47:54.567Z,963.54
2023-09-23T10:48:54.563Z,963.53
2023-09-23T10:49:54.612Z,963.54
2023-09-23T10:50:54.490Z,963.57
2023-09-23T10:51:54.500Z,963.55
2023-09-23T10:52:54.566Z,963.57
2023-09-23T10:53:54.459Z,963.57
2023-09-23T10:54:54.472Z,963.58
2023-09-23T10:55:54.605Z,963.60
2023-09-23T10:56:54.449Z,963.57
2023-09-23T10:57:54.462Z,963.59
2023-09-23T10:58:54.506Z,963.63
2023-09-23T10:59:54.430Z,963.64
2023-09-23T11:00:54.405Z,963.62
2023-09-23T11:01:54.557Z,963.65
2023-09-23T11:02:54.737Z,963.66
2023-09-23T11:03:54.480Z,963.66
2023-09-23T11:04:54.500Z,963.65
2023-09-23T11:05:54.365Z,963.65
2023-09-23T11:06:54.420Z,963.63
2023-09-23T11:07:54.504Z,963.63
2023-09-23T11:08:54.422Z,963.63
2023-09-23T11:09:54.386Z,963.63
2023-09-23T11:10:54.391Z,963.61
2023-09-23T11:11:54.294Z,963.58
2023-09-23T11:12:54.288Z,963.56
2023-09-23T11:13:54.293Z,963.56
2023-09-23T11:14:54.240Z,963.57
2023-09-23T11:15:54.310Z,963.56
2023-09-23T11:16:54.267Z,963.55
2023-09-23T11:17:54.270Z,963.59
2023-09-23T11:18:54.220Z,963.59
2023-09-23T11:19:54.228Z,963.58
2023-09-23T11:20:54.187Z,963.60
2023-09-23T11:21:54.200Z,963.59
2023-09-23T11:22:54.176Z,963.59
2023-09-23T11:23:54.157Z,963.61
2023-09-23T11:24:54.174Z,963.64
2023-09-23T11:25:54.191Z,963.63
2023-09-23T11:26:54.113Z,963.65
2023-09-23T11:27:54.167Z,963.66
2023-09-23T11:28:54.138Z,963.65
2023-09-23T11:29:54.166Z,963.65
2023-09-23T11:30:54.129Z,963.66
2023-09-23T11:31:54.110Z,963.65
2023-09-23T11:32:54.230Z,963.64
2023-09-23T11:33:54.077Z,963.64
2023-09-23T11:34:54.084Z,963.64
2023-09-23T11:35:54.090Z,963.63
2023-09-23T11:36:54.024Z,963.64
2023-09-23T11:37:54.032Z,963.65
2023-09-23T11:38:54.170Z,963.66
2023-09-23T11:39:54.019Z,963.66
2023-09-23T11:40:54.014Z,963.66
2023-09-23T11:41:54.014Z,963.64
2023-09-23T11:42:53.956Z,963.67
2023-09-23T11:43:53.972Z,963.69
2023-09-23T11:44:53.943Z,963.67
2023-09-23T11:45:53.939Z,963.67
2023-09-23T11:46:53.993Z,963.67
2023-09-23T11:47:54.010Z,963.68
2023-09-23T11:48:53.920Z,963.68
2023-09-23T11:49:54.754Z,963.70
2023-09-23T11:50:54.024Z,963.70
2023-09-23T11:51:53.902Z,963.71
2023-09-23T11:52:53.876Z,963.72
2023-09-23T11:53:53.905Z,963.76
2023-09-23T11:54:57.314Z,963.77
2023-09-23T11:55:53.850Z,963.76
2023-09-23T11:56:53.828Z,963.76
2023-09-23T11:57:53.875Z,963.76
2023-09-23T11:59:07.155Z,963.76
2023-09-23T11:59:53.837Z,963.77
2023-09-23T12:00:53.778Z,963.79
2023-09-23T12:01:53.787Z,963.80
2023-09-23T12:02:53.909Z,963.81
2023-09-23T12:03:53.892Z,963.81
2023-09-23T12:04:53.814Z,963.82
2023-09-23T12:05:55.048Z,963.82
2023-09-23T12:06:53.837Z,963.82
2023-09-23T12:07:53.756Z,963.82
2023-09-23T12:08:53.716Z,963.83
2023-09-23T12:09:53.691Z,963.83
2023-09-23T12:10:53.695Z,963.82
2023-09-23T12:11:53.699Z,963.81
2023-09-23T12:12:53.669Z,963.79
2023-09-23T12:13:53.676Z,963.79
2023-09-23T12:14:53.614Z,963.78
2023-09-23T12:15:53.659Z,963.78
2023-09-23T12:16:53.697Z,963.76
2023-09-23T12:17:53.646Z,963.75
2023-09-23T12:18:53.601Z,963.75
2023-09-23T12:19:53.567Z,963.74
2023-09-23T12:20:53.601Z,963.74
2023-09-23T12:21:53.561Z,963.75
2023-09-23T12:22:53.587Z,963.75
2023-09-23T12:23:53.591Z,963.76
2023-09-23T12:24:53.606Z,963.76
2023-09-23T12:25:53.529Z,963.76
2023-09-23T12:26:53.514Z,963.76
2023-09-23T12:27:53.558Z,963.78